Skip to main content

NOAA/GLERL Met Station at Michigan City, IN

Previous 3 Hours (2 minute increments)
See also Previous 5 Days (top of hour)
Jump down to Data
Switch to [English][Metric]
Zoom: Click and drag, Pan: shift-click and drag, Unzoom: double-click, Unzoom All





See also 1-day windrose plot


NOAA/GLERL Met Station at Michigan City, IN

Previous 3 Hours (2 minute increments)
See also Previous 5 Days (top of hour only)
Jump up to Graphs
Switch to [English][Metric]
                  Wind  Wind  Wind   Air   Dew   Rel     Sta   PAR
                   Spd   Gst   Dir  Temp    Pt   Hum    Pres uE/m2/
YYYY-MM-DD   CDT   m/s   m/s   deg     C     C     %      mb   sec
2020-04-03 18:52   5.5   6.2    58   9.3   3.3  66.1    0.00     3
2020-04-03 18:50   5.8   7.0    59   9.9   3.0  62.0    0.00    46
2020-04-03 18:48   6.9   7.5    55   9.6   3.2  64.1    0.00    63
2020-04-03 18:46   6.3   6.9    56   9.3   3.4  66.5    0.00    75
2020-04-03 18:44   6.0   6.8    57   9.1   3.5  67.7    0.00    82
2020-04-03 18:42   5.6   6.1    60   9.1   3.6  68.1    0.00    82
2020-04-03 18:40   5.8   6.2    59   9.1   3.6  68.5    0.00    82
2020-04-03 18:38   5.9   6.5    56   9.0   3.7  69.2    0.00    82
2020-04-03 18:36   5.8   6.4    56   9.1   3.6  68.2    0.00    82
2020-04-03 18:34   6.0   6.7    57   8.9   3.8  70.0    0.00    82
2020-04-03 18:32   5.3   5.7    60   8.8   3.8  70.5    0.00    91
2020-04-03 18:30   5.6   6.3    59   9.3   3.6  67.2    0.00   139
2020-04-03 18:28   6.6   7.2    53   9.3   3.4  66.6    0.00   144
2020-04-03 18:26   6.2   6.7    56   9.2   3.7  68.1    0.00   161
2020-04-03 18:24   6.1   6.6    56   9.2   3.5  67.5    0.00   164
2020-04-03 18:22   7.0   8.0    56   9.6   3.4  65.1    0.00   164
2020-04-03 18:20   6.3   7.4    56   9.4   3.3  65.7    0.00   164
2020-04-03 18:18   6.8   7.3    57   9.6   3.4  64.9    0.00   164
2020-04-03 18:16   6.8   7.3    55   9.5   3.4  65.4    0.00   164
2020-04-03 18:14   6.3   7.3    56   9.3   3.6  67.3    0.00   175
2020-04-03 18:12   6.5   7.1    58   9.2   3.6  67.8    0.00   173
2020-04-03 18:10   6.1   6.4    59   9.2   3.6  67.6    0.00   164
2020-04-03 18:08   6.5   6.6    57   9.2   3.6  67.9    0.00   164
2020-04-03 18:06   6.1   6.3    57   9.3   3.6  67.3    0.00   233
2020-04-03 18:04   6.5   7.3    57   9.6   3.3  64.4    0.00   224
2020-04-03 18:02   7.0   7.3    55   9.6   3.2  64.3    0.00   194
2020-04-03 18:00   7.4   7.9    53   9.7   3.1  63.2    0.00   171
2020-04-03 17:58   7.6   7.9    56   9.5   3.2  64.7    0.00   312
2020-04-03 17:56   7.1   7.6    59   9.2   3.4  67.0    0.00   329
2020-04-03 17:54   6.7   7.2    59   8.9   3.6  69.3    0.00   329
2020-04-03 17:52   6.5   6.8    58   8.9   3.6  69.4    0.00   329
2020-04-03 17:50   6.6   7.1    56   8.9   3.6  69.2    0.00   329
2020-04-03 17:48   6.4   7.0    56   8.8   3.7  70.3    0.00   329
2020-04-03 17:46   6.5   6.8    57   8.8   3.7  70.3    0.00   392
2020-04-03 17:44   6.5   6.9    56   8.7   3.7  70.5    0.00   411
2020-04-03 17:42   6.7   7.2    56   8.6   3.6  70.8    0.00   341
2020-04-03 17:40   6.6   7.3    57   8.6   3.6  70.8    0.00   380
2020-04-03 17:38   6.8   7.1    56   8.5   3.7  71.5    0.00   430
2020-04-03 17:36   6.3   7.0    58   8.3   3.9  73.8    0.00   481
2020-04-03 17:34   6.3   6.7    57   8.3   3.9  73.8    0.00   493
2020-04-03 17:32   6.6   6.9    54   8.2   4.0  74.7    0.00   493
2020-04-03 17:30   6.0   6.6    55   8.1   4.1  75.5    0.00   493
2020-04-03 17:28   5.9   6.5    56   8.2   3.9  74.2    0.00   493
2020-04-03 17:26   6.2   6.7    54   8.2   3.9  74.1    0.00   493
2020-04-03 17:24   5.9   6.4    53   8.2   3.8  73.9    0.00   493
2020-04-03 17:22   6.2   6.5    56   8.2   3.9  74.3    0.00   497
2020-04-03 17:20   6.3   6.6    56   8.2   3.9  74.2    0.00   570
2020-04-03 17:18   6.1   6.6    55   8.3   3.9  73.7    0.00   575
2020-04-03 17:16   6.4   6.8    55   8.2   3.9  74.4    0.00   575
2020-04-03 17:14   6.4   7.0    56   8.3   3.8  73.3    0.00   575
2020-04-03 17:12   6.3   6.8    56   8.5   3.9  72.8    0.00   577
2020-04-03 17:10   6.3   6.5    54   8.5   4.0  73.2    0.00   654
2020-04-03 17:08   5.9   6.3    54   8.5   4.0  73.2    0.00   658
2020-04-03 17:06   6.0   6.5    52   8.5   4.0  73.0    0.00   658
2020-04-03 17:04   6.1   6.6    55   8.6   3.9  72.1    0.00   658
2020-04-03 17:02   5.7   6.3    52   8.6   4.0  72.7    0.00   658
2020-04-03 17:00   5.7   6.1    54   8.7   4.0  72.2    0.00   658
2020-04-03 16:58   6.1   6.4    53   8.8   3.9  71.0    0.00   687
2020-04-03 16:56   6.4   6.8    52   8.7   3.9  71.8    0.00   661
2020-04-03 16:54   5.5   6.2    51   8.5   4.1  73.9    0.00   683
2020-04-03 16:52   5.1   5.5    53   8.6   4.0  72.7    0.00   665
2020-04-03 16:50   6.0   6.8    51   8.9   3.8  70.1    0.00   505
2020-04-03 16:48   5.6   6.4    51   8.7   4.0  72.4    0.00   740
2020-04-03 16:46   5.3   5.9    53   8.8   4.0  71.6    0.00   740
2020-04-03 16:44   5.7   6.2    54   8.8   3.9  71.2    0.00   723
2020-04-03 16:42   6.2   6.7    53   8.7   4.0  72.3    0.00   731
2020-04-03 16:40   5.7   6.2    53   8.3   4.2  75.0    0.00   730
2020-04-03 16:38   5.4   5.9    55   8.4   4.0  73.9    0.00   608
2020-04-03 16:36   5.7   6.1    54   8.3   4.1  74.8    0.00   798
2020-04-03 16:34   5.5   5.9    52   8.3   4.3  75.6    0.00   819
2020-04-03 16:32   4.9   5.6    51   8.0   4.3  77.1    0.00   822
2020-04-03 16:30   5.0   5.4    57   8.2   4.1  75.1    0.00   844
2020-04-03 16:28   5.7   6.2    52   8.3   4.1  74.9    0.00   904
2020-04-03 16:26   5.9   6.3    53   8.0   4.3  77.3    0.00   904
2020-04-03 16:24   5.1   5.9    52   7.7   4.5  79.8    0.00   904
2020-04-03 16:22   4.3   4.6    48   7.6   4.4  79.8    0.00   897
2020-04-03 16:20   4.9   5.9    46   7.8   4.2  78.0    0.00   401
2020-04-03 16:18   5.3   6.0    48   7.7   4.4  79.4    0.00   329
2020-04-03 16:16   5.1   5.9    48   7.9   4.2  77.5    0.00   593
2020-04-03 16:14   5.7   6.1    48   8.0   4.1  76.3    0.00   904
2020-04-03 16:12   5.9   6.3    46   8.3   3.9  73.4    0.00   904
2020-04-03 16:10   6.6   7.1    47   8.4   3.9  73.4    0.00   904
2020-04-03 16:08   6.1   6.3    51   8.1   4.1  76.0    0.00   904
2020-04-03 16:06   6.3   6.8    53   8.2   4.1  75.3    0.00   904
2020-04-03 16:04   6.4   7.2    52   8.3   3.9  73.5    0.00   904
2020-04-03 16:02   6.6   7.3    53   8.0   4.2  77.0    0.00   904
2020-04-03 16:00   5.7   6.3    56   7.9   4.3  77.9    0.00   904
2020-04-03 15:58   5.9   6.4    59   8.1   4.2  76.2    0.00   954
2020-04-03 15:56   6.4   6.7    53   8.2   4.0  74.7    0.00   981
2020-04-03 15:54   7.1   8.1    53   8.7   3.6  70.4    0.00   986
2020-04-03 15:52   8.3   8.7    54   8.6   3.7  71.1    0.00   986